Time;durP1;ratioP1;P1;durP2;ratioP2;P2;SDS_P1;SDS_P2;PMS_P1;PMS_P2;Temp;Humidity;BMP_temperature;BMP_pressure;BME280_temperature;BME280_humidity;BME280_pressure;Samples;Min_cycle;Max_cycle;Signal;HPM_P1;HPM_P2
2023/10/07 00:02:11;;;;;;;;;;;22.20;59.00;;;;;;5036330;28;20362;-80
2023/10/07 00:04:38;;;;;;;;;;;22.20;59.60;;;;;;5036786;28;19921;-80
2023/10/07 00:07:10;;;;;;;;;;;22.20;59.00;;;;;;5034192;28;19921;-79
2023/10/07 00:09:38;;;;;;;;;;;22.20;59.00;;;;;;5019795;28;19932;-79
2023/10/07 00:12:05;;;;;;;;;;;22.20;59.00;;;;;;5016686;28;19921;-80
2023/10/07 00:14:33;;;;;;;;;;;22.20;59.10;;;;;;5026316;28;19964;-78
2023/10/07 00:17:05;;;;;;;;;;;22.20;59.10;;;;;;5035506;28;19921;-79
2023/10/07 00:19:33;;;;;;;;;;;22.20;59.10;;;;;;5034197;28;19921;-79
2023/10/07 00:22:00;;;;;;;;;;;22.20;59.10;;;;;;5036454;28;20012;-78
2023/10/07 00:24:32;;;;;;;;;;;22.20;59.20;;;;;;5036800;28;19921;-78
2023/10/07 00:26:59;;;;;;;;;;;22.20;59.20;;;;;;5033498;28;19988;-78
2023/10/07 00:29:32;;;;;;;;;;;22.20;59.20;;;;;;5036160;28;19928;-79
2023/10/07 00:31:58;;;;;;;;;;;22.20;59.30;;;;;;5022652;28;19921;-78
2023/10/07 00:34:27;;;;;;;;;;;22.20;59.30;;;;;;5034047;28;19928;-78
2023/10/07 00:36:57;;;;;;;;;;;22.20;59.30;;;;;;5033306;28;19921;-78
2023/10/07 00:39:31;;;;;;;;;;;22.20;59.40;;;;;;5033054;28;19921;-79
2023/10/07 00:41:59;;;;;;;;;;;22.20;59.30;;;;;;5034903;28;19928;-78
2023/10/07 00:44:31;;;;;;;;;;;22.20;59.40;;;;;;5025355;28;19921;-78
2023/10/07 00:47:12;;;;;;;;;;;22.20;59.40;;;;;;5035258;28;19952;-79
2023/10/07 00:49:41;;;;;;;;;;;22.20;59.30;;;;;;5018606;28;19921;-78
2023/10/07 00:52:11;;;;;;;;;;;22.20;59.30;;;;;;5036099;28;19964;-79
2023/10/07 00:54:49;;;;;;;;;;;22.20;59.40;;;;;;5016270;28;19921;-78
2023/10/07 00:57:24;;;;;;;;;;;22.20;59.30;;;;;;5016246;28;19921;-78
2023/10/07 00:59:53;;;;;;;;;;;22.20;59.30;;;;;;5015835;28;19971;-78
2023/10/07 01:02:30;;;;;;;;;;;22.20;59.40;;;;;;5013777;28;19929;-78
2023/10/07 01:05:06;;;;;;;;;;;22.20;59.40;;;;;;5015426;28;19928;-78
2023/10/07 01:07:34;;;;;;;;;;;22.20;59.50;;;;;;5037858;28;19921;-78
2023/10/07 01:10:12;;;;;;;;;;;22.20;59.40;;;;;;5048875;28;19921;-78
2023/10/07 01:12:39;;;;;;;;;;;22.20;59.50;;;;;;5048375;28;19921;-77
2023/10/07 01:15:17;;;;;;;;;;;22.20;59.50;;;;;;5033002;28;19943;-78
2023/10/07 01:17:45;;;;;;;;;;;22.20;59.50;;;;;;5052223;28;19921;-78
2023/10/07 01:20:14;;;;;;;;;;;22.20;59.50;;;;;;5051555;28;19932;-78
2023/10/07 01:23:00;;;;;;;;;;;22.20;59.50;;;;;;5047623;28;19925;-77
2023/10/07 01:25:29;;;;;;;;;;;22.20;59.50;;;;;;5031930;28;19921;-79
2023/10/07 01:27:55;;;;;;;;;;;22.20;59.50;;;;;;5035796;28;19928;-78
2023/10/07 01:30:26;;;;;;;;;;;22.20;59.60;;;;;;5033613;28;19921;-78
2023/10/07 01:32:57;;;;;;;;;;;22.20;59.60;;;;;;5033023;28;20012;-77
2023/10/07 01:35:30;;;;;;;;;;;22.20;59.60;;;;;;5034829;28;19943;-78
2023/10/07 01:38:07;;;;;;;;;;;22.20;59.60;;;;;;5033890;28;19921;-77
2023/10/07 01:40:43;;;;;;;;;;;22.20;59.70;;;;;;5031761;28;20008;-77
2023/10/07 01:43:10;;;;;;;;;;;22.20;59.70;;;;;;5032789;28;19921;-79
2023/10/07 01:45:39;;;;;;;;;;;22.20;59.70;;;;;;5032619;28;19936;-78
2023/10/07 01:48:08;;;;;;;;;;;22.20;59.70;;;;;;5031413;28;19921;-77
2023/10/07 01:50:38;;;;;;;;;;;22.20;59.70;;;;;;5048898;28;19921;-78
2023/10/07 01:53:07;;;;;;;;;;;22.20;59.80;;;;;;5034793;28;20371;-79
2023/10/07 01:55:35;;;;;;;;;;;22.20;59.80;;;;;;5033813;28;19924;-78
2023/10/07 01:58:02;;;;;;;;;;;22.20;59.70;;;;;;5034339;28;19928;-79
2023/10/07 02:00:43;;;;;;;;;;;22.20;59.80;;;;;;5050642;28;19932;-78
2023/10/07 02:03:13;;;;;;;;;;;22.20;59.80;;;;;;5048429;28;19921;-78
2023/10/07 02:05:41;;;;;;;;;;;22.20;59.80;;;;;;5050006;28;19928;-79
2023/10/07 02:08:14;;;;;;;;;;;22.20;59.80;;;;;;5050759;28;20004;-79
2023/10/07 02:10:42;;;;;;;;;;;22.20;59.80;;;;;;5022882;28;19922;-79
2023/10/07 02:13:13;;;;;;;;;;;22.20;59.80;;;;;;5014337;28;19992;-79
2023/10/07 02:15:42;;;;;;;;;;;22.20;59.80;;;;;;5014414;28;19948;-79
2023/10/07 02:18:15;;;;;;;;;;;22.20;59.80;;;;;;5018465;28;19928;-79
2023/10/07 02:20:44;;;;;;;;;;;22.20;59.80;;;;;;5018571;28;19921;-79
2023/10/07 02:23:15;;;;;;;;;;;22.20;59.90;;;;;;5034640;28;19928;-79
2023/10/07 02:25:49;;;;;;;;;;;22.20;59.90;;;;;;5024158;28;19940;-79
2023/10/07 02:28:16;;;;;;;;;;;22.20;59.90;;;;;;5031331;28;19921;-79
2023/10/07 02:31:00;;;;;;;;;;;22.20;59.90;;;;;;5033673;28;19925;-79
2023/10/07 02:33:27;;;;;;;;;;;22.20;60.00;;;;;;5034368;28;20015;-79
2023/10/07 02:35:55;;;;;;;;;;;22.20;60.00;;;;;;5032439;28;19921;-78
2023/10/07 02:38:28;;;;;;;;;;;22.20;60.00;;;;;;5033547;28;19925;-79
2023/10/07 02:41:06;;;;;;;;;;;22.20;60.00;;;;;;5023496;28;19928;-79
2023/10/07 02:43:35;;;;;;;;;;;22.20;59.90;;;;;;5031522;28;19921;-79
2023/10/07 02:46:05;;;;;;;;;;;22.20;60.00;;;;;;5031516;28;19921;-78
2023/10/07 02:48:35;;;;;;;;;;;22.20;60.00;;;;;;5034792;28;19967;-78
2023/10/07 02:51:09;;;;;;;;;;;22.20;60.00;;;;;;5033762;28;19960;-79
2023/10/07 02:53:36;;;;;;;;;;;22.20;60.00;;;;;;5033679;28;20358;-79
2023/10/07 02:56:16;;;;;;;;;;;22.20;60.10;;;;;;5032607;28;19925;-78
2023/10/07 02:58:51;;;;;;;;;;;22.20;60.10;;;;;;5032022;28;19925;-79
2023/10/07 03:01:25;;;;;;;;;;;22.20;60.10;;;;;;5031440;28;19921;-78
2023/10/07 03:03:52;;;;;;;;;;;22.20;60.10;;;;;;5031321;28;19988;-79
2023/10/07 03:06:18;;;;;;;;;;;22.20;60.10;;;;;;5034253;28;20008;-79
2023/10/07 03:08:50;;;;;;;;;;;22.20;60.20;;;;;;5028250;28;19929;-79
2023/10/07 03:11:22;;;;;;;;;;;22.20;60.10;;;;;;5017672;28;19921;-79
2023/10/07 03:13:49;;;;;;;;;;;22.20;60.10;;;;;;5031552;28;19928;-79
2023/10/07 03:16:28;;;;;;;;;;;22.20;60.20;;;;;;5020072;28;19922;-78
2023/10/07 03:19:06;;;;;;;;;;;22.20;60.30;;;;;;5021945;28;19956;-78
2023/10/07 03:21:54;;;;;;;;;;;22.20;61.00;;;;;;5034502;28;19932;-79
2023/10/07 03:24:29;;;;;;;;;;;22.20;60.30;;;;;;5033393;28;19992;-78
2023/10/07 03:27:05;;;;;;;;;;;22.20;60.30;;;;;;5047836;28;19928;-79
2023/10/07 03:29:36;;;;;;;;;;;22.20;60.30;;;;;;5048111;28;19921;-79
2023/10/07 03:32:08;;;;;;;;;;;22.20;60.40;;;;;;5037289;28;19925;-80
2023/10/07 03:34:36;;;;;;;;;;;22.20;60.30;;;;;;5037432;28;19968;-80
2023/10/07 03:37:15;;;;;;;;;;;22.20;60.40;;;;;;5037622;28;19932;-79
2023/10/07 03:40:17;;;;;;;;;;;22.20;60.40;;;;;;5037287;28;19928;-79
2023/10/07 03:42:46;;;;;;;;;;;22.20;60.40;;;;;;5034095;28;19921;-78
2023/10/07 03:45:14;;;;;;;;;;;22.20;60.40;;;;;;5015416;28;19921;-79
2023/10/07 03:47:46;;;;;;;;;;;22.20;60.30;;;;;;5014918;28;19925;-79
2023/10/07 03:50:29;;;;;;;;;;;22.20;60.50;;;;;;5016604;28;19922;-79
2023/10/07 03:52:58;;;;;;;;;;;22.20;60.50;;;;;;5016325;28;20376;-80
2023/10/07 03:55:27;;;;;;;;;;;22.20;60.60;;;;;;5014736;28;19927;-80
2023/10/07 03:57:56;;;;;;;;;;;22.20;60.70;;;;;;5024038;28;19932;-79
2023/10/07 04:00:28;;;;;;;;;;;22.20;60.90;;;;;;5034020;28;19925;-80
2023/10/07 04:03:01;;;;;;;;;;;22.20;61.00;;;;;;5033728;28;19921;-79
2023/10/07 04:05:32;;;;;;;;;;;22.10;61.10;;;;;;5037061;28;19951;-79
2023/10/07 04:08:00;;;;;;;;;;;22.20;61.20;;;;;;5052860;28;19948;-78
2023/10/07 04:10:36;;;;;;;;;;;22.20;61.30;;;;;;5033679;28;19929;-80
2023/10/07 04:13:07;;;;;;;;;;;22.10;61.30;;;;;;5050933;28;20248;-79
2023/10/07 04:15:44;;;;;;;;;;;22.20;61.40;;;;;;5033786;28;19932;-79
2023/10/07 04:18:13;;;;;;;;;;;22.20;61.40;;;;;;5035116;28;19928;-78
2023/10/07 04:20:57;;;;;;;;;;;22.20;61.50;;;;;;5033879;28;19921;-79
2023/10/07 04:23:25;;;;;;;;;;;22.20;61.60;;;;;;5035734;28;19925;-79
2023/10/07 04:25:55;;;;;;;;;;;22.10;61.60;;;;;;5034042;28;19922;-79
2023/10/07 04:28:25;;;;;;;;;;;22.10;61.70;;;;;;5033813;28;20039;-76
2023/10/07 04:30:53;;;;;;;;;;;22.10;61.70;;;;;;5034946;28;19992;-77
2023/10/07 04:33:25;;;;;;;;;;;22.10;62.00;;;;;;5034033;28;19931;-77
2023/10/07 04:35:53;;;;;;;;;;;22.10;62.20;;;;;;5031826;28;20306;-78
2023/10/07 04:38:53;;;;;;;;;;;22.10;62.20;;;;;;5017086;28;19933;-77
2023/10/07 04:41:33;;;;;;;;;;;22.00;62.10;;;;;;5018072;28;19976;-78
2023/10/07 04:44:20;;;;;;;;;;;22.00;62.10;;;;;;5030802;28;20008;-77
2023/10/07 04:46:56;;;;;;;;;;;22.00;62.10;;;;;;5034397;28;19925;-77
2023/10/07 04:49:26;;;;;;;;;;;22.00;62.10;;;;;;5033736;28;19921;-77
2023/10/07 04:51:54;;;;;;;;;;;21.90;62.00;;;;;;5036108;28;19967;-77
2023/10/07 04:54:20;;;;;;;;;;;21.90;62.00;;;;;;5022109;28;20015;-77
2023/10/07 04:56:53;;;;;;;;;;;21.90;62.30;;;;;;5014112;28;19993;-77
2023/10/07 04:59:21;;;;;;;;;;;21.90;62.00;;;;;;5030280;28;19921;-77
2023/10/07 05:01:56;;;;;;;;;;;21.80;62.00;;;;;;5024236;28;19968;-77
2023/10/07 05:04:24;;;;;;;;;;;21.80;62.00;;;;;;5043210;28;19971;-77
2023/10/07 05:06:51;;;;;;;;;;;21.80;62.00;;;;;;5012186;28;19972;-77
2023/10/07 05:09:18;;;;;;;;;;;21.80;61.90;;;;;;5023596;28;19964;-77
2023/10/07 05:11:46;;;;;;;;;;;21.80;62.00;;;;;;5030800;28;19928;-77
2023/10/07 05:14:15;;;;;;;;;;;21.80;62.00;;;;;;5033524;28;19921;-77
2023/10/07 05:16:46;;;;;;;;;;;21.80;62.00;;;;;;5023354;28;19928;-77
2023/10/07 05:19:19;;;;;;;;;;;21.80;61.80;;;;;;5015613;28;19928;-77
2023/10/07 05:21:58;;;;;;;;;;;21.80;62.00;;;;;;4996765;28;19921;-77
2023/10/07 05:24:28;;;;;;;;;;;21.80;62.00;;;;;;5014750;28;19953;-77
2023/10/07 05:26:55;;;;;;;;;;;21.80;61.80;;;;;;5013047;28;19921;-77
2023/10/07 05:29:24;;;;;;;;;;;21.80;61.80;;;;;;5021880;28;19928;-77
2023/10/07 05:31:53;;;;;;;;;;;21.80;61.70;;;;;;5034985;28;19921;-77
2023/10/07 05:34:19;;;;;;;;;;;21.80;61.70;;;;;;5018258;28;19929;-77
2023/10/07 05:36:47;;;;;;;;;;;21.80;61.60;;;;;;5018849;28;19932;-77
2023/10/07 05:39:32;;;;;;;;;;;21.80;61.40;;;;;;5074707;28;19918;-66
2023/10/07 05:41:59;;;;;;;;;;;21.80;61.50;;;;;;5037996;28;20007;-66
2023/10/07 05:44:26;;;;;;;;;;;21.80;61.50;;;;;;5054618;28;20199;-66
2023/10/07 05:46:53;;;;;;;;;;;21.80;61.50;;;;;;5051044;28;19967;-66
2023/10/07 05:49:20;;;;;;;;;;;21.80;61.40;;;;;;5035985;28;19928;-67
2023/10/07 05:51:47;;;;;;;;;;;21.90;61.60;;;;;;5037077;28;19928;-65
2023/10/07 05:54:18;;;;;;;;;;;21.80;61.30;;;;;;5039258;28;19992;-66
2023/10/07 05:56:48;;;;;;;;;;;21.90;61.30;;;;;;5034526;28;19974;-66
2023/10/07 05:59:15;;;;;;;;;;;21.90;61.30;;;;;;5041303;28;19983;-68
2023/10/07 06:01:42;;;;;;;;;;;21.90;61.30;;;;;;5050223;28;20281;-67
2023/10/07 06:04:11;;;;;;;;;;;21.90;61.10;;;;;;5041385;28;19927;-68
2023/10/07 06:06:40;;;;;;;;;;;21.90;61.10;;;;;;5054707;28;19943;-66
2023/10/07 06:09:10;;;;;;;;;;;21.90;61.00;;;;;;5032219;28;20870;-66
2023/10/07 06:11:37;;;;;;;;;;;21.90;61.10;;;;;;5031706;28;20199;-66
2023/10/07 06:14:06;;;;;;;;;;;21.90;61.10;;;;;;5034147;28;19968;-66
2023/10/07 06:16:33;;;;;;;;;;;21.90;61.10;;;;;;5029556;28;20008;-67
2023/10/07 06:19:00;;;;;;;;;;;21.90;61.10;;;;;;5031713;28;19921;-67
2023/10/07 06:21:28;;;;;;;;;;;21.90;61.00;;;;;;5032867;28;19953;-67
2023/10/07 06:23:55;;;;;;;;;;;21.90;61.00;;;;;;5029495;28;19983;-66
2023/10/07 06:26:22;;;;;;;;;;;21.90;61.00;;;;;;5033512;28;19921;-66
2023/10/07 06:28:49;;;;;;;;;;;21.90;61.00;;;;;;5028088;28;19947;-66
2023/10/07 06:31:22;;;;;;;;;;;21.90;61.00;;;;;;5037549;28;19921;-68
2023/10/07 06:33:59;;;;;;;;;;;21.90;61.00;;;;;;5033083;28;20044;-66
2023/10/07 06:36:26;;;;;;;;;;;21.90;61.30;;;;;;5036822;28;19992;-66
2023/10/07 06:38:58;;;;;;;;;;;21.90;61.30;;;;;;5036092;28;19928;-66
2023/10/07 06:41:25;;;;;;;;;;;21.90;61.30;;;;;;5036430;28;20011;-66
2023/10/07 06:43:53;;;;;;;;;;;21.90;61.30;;;;;;5033474;28;20643;-66
2023/10/07 06:46:21;;;;;;;;;;;21.90;61.30;;;;;;5033844;28;19952;-66
2023/10/07 06:48:49;;;;;;;;;;;21.90;61.30;;;;;;5033630;28;19921;-66
2023/10/07 06:51:16;;;;;;;;;;;21.90;61.30;;;;;;5015395;28;19967;-66
2023/10/07 06:53:43;;;;;;;;;;;21.90;61.20;;;;;;5036086;28;19975;-66
2023/10/07 06:56:13;;;;;;;;;;;21.90;61.20;;;;;;5019487;28;20354;-66
2023/10/07 06:58:39;;;;;;;;;;;21.90;61.10;;;;;;5019451;28;19925;-68
2023/10/07 07:01:17;;;;;;;;;;;21.80;61.10;;;;;;5020578;28;19975;-66
2023/10/07 07:03:45;;;;;;;;;;;21.80;61.10;;;;;;5022106;28;20109;-66
2023/10/07 07:06:17;;;;;;;;;;;21.80;61.00;;;;;;5039509;28;19991;-67
2023/10/07 07:08:44;;;;;;;;;;;21.80;61.00;;;;;;5035369;28;20235;-65
2023/10/07 07:11:11;;;;;;;;;;;21.80;61.00;;;;;;5012735;28;19921;-66
2023/10/07 07:13:43;;;;;;;;;;;21.70;60.90;;;;;;5035420;28;19935;-67
2023/10/07 07:16:13;;;;;;;;;;;21.80;61.00;;;;;;5020319;28;19952;-68
2023/10/07 07:18:40;;;;;;;;;;;21.70;60.90;;;;;;5018272;28;19920;-65
2023/10/07 07:21:31;;;;;;;;;;;21.70;60.90;;;;;;5012929;28;19944;-66
2023/10/07 07:23:58;;;;;;;;;;;21.70;60.80;;;;;;5032374;28;19921;-67
2023/10/07 07:26:25;;;;;;;;;;;21.70;60.70;;;;;;5019697;28;19921;-65
2023/10/07 07:28:56;;;;;;;;;;;21.70;60.70;;;;;;5033884;28;19921;-65
2023/10/07 07:31:26;;;;;;;;;;;21.70;60.70;;;;;;5038513;28;19929;-65
2023/10/07 07:34:05;;;;;;;;;;;21.70;60.70;;;;;;5041506;28;19925;-66
2023/10/07 07:36:39;;;;;;;;;;;21.70;60.70;;;;;;5025803;28;19925;-66
2023/10/07 07:39:09;;;;;;;;;;;21.70;60.70;;;;;;5036930;28;19926;-67
2023/10/07 07:41:38;;;;;;;;;;;21.70;60.60;;;;;;5014463;28;19974;-68
2023/10/07 07:44:11;;;;;;;;;;;21.70;60.60;;;;;;5011015;28;19944;-67
2023/10/07 07:46:51;;;;;;;;;;;21.70;60.60;;;;;;5015324;28;19921;-67
2023/10/07 07:49:19;;;;;;;;;;;21.70;60.60;;;;;;5015595;28;19925;-67
2023/10/07 07:51:51;;;;;;;;;;;21.70;60.60;;;;;;5015369;28;19967;-67
2023/10/07 07:54:18;;;;;;;;;;;21.70;60.60;;;;;;5013933;28;19925;-67
2023/10/07 07:56:45;;;;;;;;;;;21.70;60.60;;;;;;5014697;28;20564;-67
2023/10/07 07:59:14;;;;;;;;;;;21.70;60.60;;;;;;5010120;28;19975;-67
2023/10/07 08:01:44;;;;;;;;;;;21.70;60.50;;;;;;5030026;28;19929;-68
2023/10/07 08:04:17;;;;;;;;;;;21.70;60.60;;;;;;5008447;28;19922;-68
2023/10/07 08:06:45;;;;;;;;;;;21.70;60.60;;;;;;5017698;28;19987;-69
2023/10/07 08:09:19;;;;;;;;;;;21.70;60.70;;;;;;5023288;28;19940;-68
2023/10/07 08:11:46;;;;;;;;;;;21.70;60.70;;;;;;5026126;28;19925;-67
2023/10/07 08:14:13;;;;;;;;;;;21.70;60.70;;;;;;5024879;28;19964;-69
2023/10/07 08:16:50;;;;;;;;;;;21.70;60.80;;;;;;5011446;28;20785;-68
2023/10/07 08:19:20;;;;;;;;;;;21.70;60.80;;;;;;5006627;28;19925;-69
2023/10/07 08:21:51;;;;;;;;;;;21.70;60.90;;;;;;5024570;28;20426;-70
2023/10/07 08:24:21;;;;;;;;;;;21.70;61.00;;;;;;5028241;28;19933;-69
2023/10/07 08:26:48;;;;;;;;;;;21.70;61.00;;;;;;5010072;28;19925;-69
2023/10/07 08:29:30;;;;;;;;;;;21.70;61.00;;;;;;5011201;28;19927;-70
2023/10/07 08:31:58;;;;;;;;;;;21.70;61.00;;;;;;5007719;28;19950;-69
2023/10/07 08:34:32;;;;;;;;;;;21.70;61.00;;;;;;5009303;28;20027;-69
2023/10/07 08:37:01;;;;;;;;;;;21.60;61.00;;;;;;5024700;28;19948;-70
2023/10/07 08:39:29;;;;;;;;;;;21.60;61.00;;;;;;5007232;28;19921;-70
2023/10/07 08:41:58;;;;;;;;;;;21.60;61.00;;;;;;5011333;28;19932;-69
2023/10/07 08:44:31;;;;;;;;;;;21.60;61.00;;;;;;5008961;28;19968;-69
2023/10/07 08:47:03;;;;;;;;;;;21.60;61.00;;;;;;5010819;28;19964;-70
2023/10/07 08:49:33;;;;;;;;;;;21.60;61.00;;;;;;5025120;28;20003;-70
2023/10/07 08:52:00;;;;;;;;;;;21.60;61.00;;;;;;5008087;28;19922;-69
2023/10/07 08:54:31;;;;;;;;;;;21.60;61.00;;;;;;5024114;28;19928;-69
2023/10/07 08:56:59;;;;;;;;;;;21.60;61.00;;;;;;5014786;28;20565;-69
2023/10/07 08:59:30;;;;;;;;;;;21.60;61.00;;;;;;5009243;28;19932;-70
2023/10/07 09:01:59;;;;;;;;;;;21.60;61.00;;;;;;5028209;28;19929;-69
2023/10/07 09:04:31;;;;;;;;;;;21.60;60.80;;;;;;4998081;28;20001;-69
2023/10/07 09:06:58;;;;;;;;;;;21.60;60.80;;;;;;5010973;28;20252;-69
2023/10/07 09:09:37;;;;;;;;;;;21.60;60.70;;;;;;5011718;28;19928;-69
2023/10/07 09:12:10;;;;;;;;;;;21.70;60.70;;;;;;5007402;28;19928;-69
2023/10/07 09:14:40;;;;;;;;;;;21.70;60.70;;;;;;5024619;28;19921;-70
2023/10/07 09:17:09;;;;;;;;;;;21.70;60.60;;;;;;5011098;28;19973;-70
2023/10/07 09:19:36;;;;;;;;;;;21.60;60.50;;;;;;5028005;28;19939;-70
2023/10/07 09:22:10;;;;;;;;;;;21.70;60.60;;;;;;5010570;28;20131;-70
2023/10/07 09:24:43;;;;;;;;;;;21.70;60.50;;;;;;5026333;28;20007;-69
2023/10/07 09:27:13;;;;;;;;;;;21.70;60.50;;;;;;5030127;28;19921;-69
2023/10/07 09:29:44;;;;;;;;;;;21.70;60.40;;;;;;5028825;28;19929;-70
2023/10/07 09:32:17;;;;;;;;;;;21.70;60.40;;;;;;5013444;28;19921;-69
2023/10/07 09:34:46;;;;;;;;;;;21.70;60.30;;;;;;5012568;28;20433;-69
2023/10/07 09:37:17;;;;;;;;;;;21.70;60.30;;;;;;5027101;28;19936;-70
2023/10/07 09:39:46;;;;;;;;;;;21.70;60.30;;;;;;5007292;28;19925;-69
2023/10/07 09:42:36;;;;;;;;;;;21.70;60.30;;;;;;5012899;28;19921;-69
2023/10/07 09:45:10;;;;;;;;;;;21.80;60.60;;;;;;5010946;28;19971;-70
2023/10/07 09:47:38;;;;;;;;;;;21.70;60.50;;;;;;5012814;28;19921;-70
2023/10/07 09:50:10;;;;;;;;;;;21.70;60.40;;;;;;5029717;28;19957;-69
2023/10/07 09:52:41;;;;;;;;;;;21.80;60.80;;;;;;5024450;28;19952;-68
2023/10/07 09:55:27;;;;;;;;;;;21.80;60.70;;;;;;5011117;28;20252;-69
2023/10/07 09:58:00;;;;;;;;;;;21.80;60.60;;;;;;5024651;28;19932;-68
2023/10/07 10:00:40;;;;;;;;;;;21.80;60.60;;;;;;5006278;28;19921;-68
2023/10/07 10:03:25;;;;;;;;;;;21.80;60.60;;;;;;5014095;28;19921;-69
2023/10/07 10:05:56;;;;;;;;;;;21.80;60.40;;;;;;5007455;28;19984;-69
2023/10/07 10:08:44;;;;;;;;;;;21.80;60.50;;;;;;5004138;28;19941;-69
2023/10/07 10:11:30;;;;;;;;;;;21.80;60.50;;;;;;5005393;28;20032;-67
2023/10/07 10:14:16;;;;;;;;;;;21.80;60.70;;;;;;4996683;28;19971;-67
2023/10/07 10:16:44;;;;;;;;;;;21.80;60.90;;;;;;5026898;28;19928;-67
2023/10/07 10:19:22;;;;;;;;;;;21.80;61.00;;;;;;5011253;28;19922;-67
2023/10/07 10:21:48;;;;;;;;;;;21.80;60.90;;;;;;5020991;28;19929;-67
2023/10/07 10:24:15;;;;;;;;;;;21.80;60.90;;;;;;5021281;28;19933;-68
2023/10/07 10:26:43;;;;;;;;;;;21.70;60.70;;;;;;5031012;28;19925;-67
2023/10/07 10:29:17;;;;;;;;;;;21.70;60.70;;;;;;5010340;28;20429;-68
2023/10/07 10:31:50;;;;;;;;;;;21.70;60.70;;;;;;5012528;28;19943;-68
2023/10/07 10:34:17;;;;;;;;;;;21.70;60.70;;;;;;5021214;28;20006;-67
2023/10/07 10:36:48;;;;;;;;;;;21.70;60.80;;;;;;5007913;28;19925;-68
2023/10/07 10:39:18;;;;;;;;;;;21.70;60.70;;;;;;5030845;28;19921;-68
2023/10/07 10:41:45;;;;;;;;;;;21.70;60.80;;;;;;5026894;28;20165;-66
2023/10/07 10:44:16;;;;;;;;;;;21.70;60.90;;;;;;5007200;28;19928;-68
2023/10/07 10:46:46;;;;;;;;;;;21.70;60.80;;;;;;5005355;28;19922;-67
2023/10/07 10:49:13;;;;;;;;;;;21.60;60.80;;;;;;5014102;28;19921;-67
2023/10/07 10:51:45;;;;;;;;;;;21.70;60.90;;;;;;5010933;28;19925;-66
2023/10/07 10:54:15;;;;;;;;;;;21.70;60.90;;;;;;5014413;28;19948;-67
2023/10/07 10:56:55;;;;;;;;;;;21.70;60.90;;;;;;5007982;28;19933;-66
2023/10/07 10:59:34;;;;;;;;;;;21.70;61.20;;;;;;5014461;28;19921;-67
2023/10/07 11:02:01;;;;;;;;;;;21.70;60.90;;;;;;5012233;28;19925;-67
2023/10/07 11:04:29;;;;;;;;;;;21.60;60.90;;;;;;5008400;28;19929;-67
2023/10/07 11:06:57;;;;;;;;;;;21.60;60.90;;;;;;5008175;28;19920;-66
2023/10/07 11:09:26;;;;;;;;;;;21.60;60.90;;;;;;5007509;28;20012;-71
2023/10/07 11:11:54;;;;;;;;;;;21.60;60.80;;;;;;5008426;28;19971;-67
2023/10/07 11:14:21;;;;;;;;;;;21.60;60.80;;;;;;5011209;28;19929;-68
2023/10/07 11:16:51;;;;;;;;;;;21.60;60.60;;;;;;5028927;28;19932;-67
2023/10/07 11:19:19;;;;;;;;;;;21.60;60.80;;;;;;5012316;28;19934;-69
2023/10/07 11:21:48;;;;;;;;;;;21.70;61.00;;;;;;5013397;28;20003;-67
2023/10/07 11:24:25;;;;;;;;;;;21.70;61.00;;;;;;5014009;28;19925;-66
2023/10/07 11:26:53;;;;;;;;;;;21.70;61.00;;;;;;5013569;28;20371;-66
2023/10/07 11:29:19;;;;;;;;;;;21.70;61.00;;;;;;5014336;28;19921;-67
2023/10/07 11:31:47;;;;;;;;;;;21.70;61.00;;;;;;5013942;28;19928;-67
2023/10/07 11:34:16;;;;;;;;;;;21.70;60.90;;;;;;5014334;28;19929;-66
2023/10/07 11:36:44;;;;;;;;;;;21.70;61.00;;;;;;5010198;28;19947;-67
2023/10/07 11:39:13;;;;;;;;;;;21.70;61.00;;;;;;5012446;28;19925;-66
2023/10/07 11:41:40;;;;;;;;;;;21.70;60.90;;;;;;5013993;28;19958;-66
2023/10/07 11:44:09;;;;;;;;;;;21.70;60.90;;;;;;5031502;28;19921;-67
2023/10/07 11:46:36;;;;;;;;;;;21.70;60.90;;;;;;5014600;28;19948;-68
2023/10/07 11:49:03;;;;;;;;;;;21.70;61.00;;;;;;5015132;28;20433;-67
2023/10/07 11:51:32;;;;;;;;;;;21.70;61.00;;;;;;5012661;28;19921;-68
2023/10/07 11:54:00;;;;;;;;;;;21.80;61.20;;;;;;5014496;28;19940;-66
2023/10/07 11:56:27;;;;;;;;;;;21.80;61.30;;;;;;5013909;28;20025;-69
2023/10/07 11:58:54;;;;;;;;;;;21.70;61.10;;;;;;5004164;28;19928;-68
2023/10/07 12:01:23;;;;;;;;;;;21.80;61.10;;;;;;5013742;28;19940;-69
2023/10/07 12:03:50;;;;;;;;;;;21.80;61.30;;;;;;5010425;28;19925;-69
2023/10/07 12:06:17;;;;;;;;;;;21.70;61.30;;;;;;5010006;28;19924;-69
2023/10/07 12:08:45;;;;;;;;;;;21.80;61.50;;;;;;5013129;28;19937;-68
2023/10/07 12:11:12;;;;;;;;;;;21.80;61.30;;;;;;5013738;28;19921;-68
2023/10/07 12:13:40;;;;;;;;;;;21.70;61.30;;;;;;5008485;28;19943;-68
2023/10/07 12:16:09;;;;;;;;;;;21.70;61.20;;;;;;5026467;28;19964;-68
2023/10/07 12:18:35;;;;;;;;;;;21.70;61.20;;;;;;5013156;28;20016;-68
2023/10/07 12:21:04;;;;;;;;;;;21.70;61.30;;;;;;5013530;28;19944;-68
2023/10/07 12:23:32;;;;;;;;;;;21.70;61.20;;;;;;5025709;28;19925;-65
2023/10/07 12:26:01;;;;;;;;;;;21.70;61.20;;;;;;5006446;28;19933;-68
2023/10/07 12:28:28;;;;;;;;;;;21.70;61.20;;;;;;4997314;28;19940;-67
2023/10/07 12:30:56;;;;;;;;;;;21.70;61.20;;;;;;5000727;28;19949;-68
2023/10/07 12:33:23;;;;;;;;;;;21.70;61.20;;;;;;5009883;28;19961;-68
2023/10/07 12:35:50;;;;;;;;;;;21.60;61.10;;;;;;5023819;28;19988;-68
2023/10/07 12:38:17;;;;;;;;;;;21.60;61.10;;;;;;5026201;28;19925;-67
2023/10/07 12:40:43;;;;;;;;;;;21.70;61.20;;;;;;5011642;28;20558;-66
2023/10/07 12:43:13;;;;;;;;;;;21.70;61.10;;;;;;5006491;28;19925;-66
2023/10/07 12:45:41;;;;;;;;;;;21.70;61.10;;;;;;5011538;28;19921;-67
2023/10/07 12:48:09;;;;;;;;;;;21.60;60.90;;;;;;5011886;28;19921;-69
2023/10/07 12:50:41;;;;;;;;;;;21.70;61.00;;;;;;5029082;28;19921;-67
2023/10/07 12:53:10;;;;;;;;;;;21.70;60.90;;;;;;5009519;28;19928;-66
2023/10/07 12:55:37;;;;;;;;;;;21.70;60.90;;;;;;5028013;28;19980;-65
2023/10/07 12:58:09;;;;;;;;;;;21.60;60.80;;;;;;5030965;28;19921;-67
2023/10/07 13:00:37;;;;;;;;;;;21.70;60.90;;;;;;5007504;28;19921;-67
2023/10/07 13:03:05;;;;;;;;;;;21.70;60.90;;;;;;5008931;28;19925;-73
2023/10/07 13:05:37;;;;;;;;;;;21.70;60.80;;;;;;5009892;28;19932;-67
2023/10/07 13:08:08;;;;;;;;;;;21.70;60.70;;;;;;5013244;28;19921;-67
2023/10/07 13:10:35;;;;;;;;;;;21.70;60.70;;;;;;5012018;28;19939;-68
2023/10/07 13:13:04;;;;;;;;;;;21.70;60.70;;;;;;5006208;28;19929;-68
2023/10/07 13:15:33;;;;;;;;;;;21.70;60.60;;;;;;5003721;28;19925;-68
2023/10/07 13:18:02;;;;;;;;;;;21.70;60.60;;;;;;5000771;28;19926;-68
2023/10/07 13:20:29;;;;;;;;;;;21.70;60.60;;;;;;5019746;28;19928;-69
2023/10/07 13:22:57;;;;;;;;;;;21.70;60.60;;;;;;5012650;28;19933;-69
2023/10/07 13:25:26;;;;;;;;;;;21.70;60.50;;;;;;5029910;28;19927;-68
2023/10/07 13:27:55;;;;;;;;;;;21.70;60.40;;;;;;5009408;28;19921;-71
2023/10/07 13:30:24;;;;;;;;;;;21.70;60.40;;;;;;5005120;28;19921;-69
2023/10/07 13:32:52;;;;;;;;;;;21.70;60.30;;;;;;5010970;28;19933;-71
2023/10/07 13:35:20;;;;;;;;;;;21.70;60.30;;;;;;5010087;28;19929;-67
2023/10/07 13:37:49;;;;;;;;;;;21.70;60.30;;;;;;5013469;28;19937;-69
2023/10/07 13:40:16;;;;;;;;;;;21.70;60.30;;;;;;5003165;28;20140;-69
2023/10/07 13:42:44;;;;;;;;;;;21.70;60.30;;;;;;5003495;28;19940;-70
2023/10/07 13:45:14;;;;;;;;;;;21.70;60.20;;;;;;5029586;28;19921;-70
2023/10/07 13:47:41;;;;;;;;;;;21.70;60.20;;;;;;5027194;28;20442;-68
2023/10/07 13:50:13;;;;;;;;;;;21.70;60.10;;;;;;5013466;28;19933;-73
2023/10/07 13:52:50;;;;;;;;;;;21.70;60.00;;;;;;5004965;28;19948;-72
2023/10/07 13:55:22;;;;;;;;;;;21.70;60.00;;;;;;5008597;28;19921;-68
2023/10/07 13:57:54;;;;;;;;;;;21.70;60.00;;;;;;5002629;28;19921;-72
2023/10/07 14:00:28;;;;;;;;;;;21.80;60.10;;;;;;5012310;28;19925;-72
2023/10/07 14:02:55;;;;;;;;;;;21.70;60.00;;;;;;5021939;28;19931;-74
2023/10/07 14:05:22;;;;;;;;;;;21.80;60.00;;;;;;5033391;28;19921;-71
2023/10/07 14:07:51;;;;;;;;;;;21.80;60.00;;;;;;5014085;28;19921;-72
2023/10/07 14:10:21;;;;;;;;;;;21.80;60.00;;;;;;5012093;28;20004;-69
2023/10/07 14:12:49;;;;;;;;;;;21.80;60.00;;;;;;5012061;28;19921;-72
2023/10/07 14:15:19;;;;;;;;;;;21.80;60.00;;;;;;5009846;28;19929;-73
2023/10/07 14:17:46;;;;;;;;;;;21.80;59.90;;;;;;5032178;28;19928;-70
2023/10/07 14:20:13;;;;;;;;;;;21.80;60.00;;;;;;5012957;28;19921;-71
2023/10/07 14:22:41;;;;;;;;;;;21.80;59.90;;;;;;5013861;28;19922;-73
2023/10/07 14:25:10;;;;;;;;;;;21.80;59.90;;;;;;5014830;28;20015;-70
2023/10/07 14:27:37;;;;;;;;;;;21.70;59.80;;;;;;5006666;28;19925;-71
2023/10/07 14:30:04;;;;;;;;;;;21.80;59.80;;;;;;5033376;28;19944;-71
2023/10/07 14:32:31;;;;;;;;;;;21.70;59.60;;;;;;5012179;28;19960;-68
2023/10/07 14:34:57;;;;;;;;;;;21.80;59.70;;;;;;5010980;28;20051;-69
2023/10/07 14:37:24;;;;;;;;;;;21.70;59.60;;;;;;5014906;28;20343;-69